Wainwright, Canada
Current Conditions -  °F | °C
As of 7:00 PM on Saturday 22 Nov 2014 (Local Time) from CYLL Reporting Station
Light Snow Light Snow  
Wind Chill:   Ceiling: 2200
Heat Index: 19°   Visibility: 2mi
Dew Point: 18°   Wind: 9mph
Humidity: 93%   Direction: 20°NNE
Pressure: 29.41"   Gusts: NA
Location:  52.83°N, 110.87°W
Report Text: CYLL 230200Z 02008KT 2SM -SN DRSN OVC022 M07/M08 A2941 RMK SC8 SLP999
Loading
Personal Weather Stations






























Interactive Weather Map New forecast layout! Learn more

10-Day Weather Forecast

Advertisements
Track Severe Weather on mobile